sensor_id;sensor_type;location;lat;lon;timestamp;P1;durP1;ratioP1;P2;durP2;ratioP2
25153;SDS011;47555;51.038;6.280;2023-04-16T00:02:17;10.10;;;5.80;;
25153;SDS011;47555;51.038;6.280;2023-04-16T00:04:42;13.90;;;6.53;;
25153;SDS011;47555;51.038;6.280;2023-04-16T00:07:08;10.43;;;5.82;;
25153;SDS011;47555;51.038;6.280;2023-04-16T00:09:33;12.65;;;6.32;;
25153;SDS011;47555;51.038;6.280;2023-04-16T00:11:59;10.05;;;5.88;;
25153;SDS011;47555;51.038;6.280;2023-04-16T00:14:25;13.38;;;6.25;;
25153;SDS011;47555;51.038;6.280;2023-04-16T00:16:50;13.45;;;6.20;;
25153;SDS011;47555;51.038;6.280;2023-04-16T00:19:16;10.85;;;6.80;;
25153;SDS011;47555;51.038;6.280;2023-04-16T00:21:41;13.30;;;6.63;;
25153;SDS011;47555;51.038;6.280;2023-04-16T00:24:07;11.80;;;6.57;;
25153;SDS011;47555;51.038;6.280;2023-04-16T00:26:32;10.50;;;6.15;;
25153;SDS011;47555;51.038;6.280;2023-04-16T00:28:58;13.70;;;6.40;;
25153;SDS011;47555;51.038;6.280;2023-04-16T00:31:25;11.93;;;7.18;;
25153;SDS011;47555;51.038;6.280;2023-04-16T00:33:57;13.32;;;6.75;;
25153;SDS011;47555;51.038;6.280;2023-04-16T00:36:24;13.93;;;6.68;;
25153;SDS011;47555;51.038;6.280;2023-04-16T00:38:50;9.63;;;6.30;;
25153;SDS011;47555;51.038;6.280;2023-04-16T00:41:16;11.30;;;6.55;;
25153;SDS011;47555;51.038;6.280;2023-04-16T00:43:42;9.70;;;6.20;;
25153;SDS011;47555;51.038;6.280;2023-04-16T00:46:07;10.95;;;6.45;;
25153;SDS011;47555;51.038;6.280;2023-04-16T00:48:34;11.52;;;6.07;;
25153;SDS011;47555;51.038;6.280;2023-04-16T00:51:03;11.07;;;7.03;;
25153;SDS011;47555;51.038;6.280;2023-04-16T00:53:30;13.75;;;6.82;;
25153;SDS011;47555;51.038;6.280;2023-04-16T00:55:56;11.98;;;6.65;;
25153;SDS011;47555;51.038;6.280;2023-04-16T00:58:22;14.18;;;6.72;;
25153;SDS011;47555;51.038;6.280;2023-04-16T01:00:49;13.32;;;6.18;;
25153;SDS011;47555;51.038;6.280;2023-04-16T01:03:15;17.30;;;6.65;;
25153;SDS011;47555;51.038;6.280;2023-04-16T01:05:40;9.88;;;6.43;;
25153;SDS011;47555;51.038;6.280;2023-04-16T01:08:06;16.27;;;7.20;;
25153;SDS011;47555;51.038;6.280;2023-04-16T01:10:40;12.27;;;7.05;;
25153;SDS011;47555;51.038;6.280;2023-04-16T01:13:05;10.93;;;6.47;;
25153;SDS011;47555;51.038;6.280;2023-04-16T01:15:31;14.40;;;6.72;;
25153;SDS011;47555;51.038;6.280;2023-04-16T01:17:56;9.95;;;5.82;;
25153;SDS011;47555;51.038;6.280;2023-04-16T01:20:22;12.23;;;6.18;;
25153;SDS011;47555;51.038;6.280;2023-04-16T01:22:47;13.38;;;6.70;;
25153;SDS011;47555;51.038;6.280;2023-04-16T01:25:13;14.63;;;7.07;;
25153;SDS011;47555;51.038;6.280;2023-04-16T01:27:40;11.73;;;6.43;;
25153;SDS011;47555;51.038;6.280;2023-04-16T01:30:05;11.50;;;6.38;;
25153;SDS011;47555;51.038;6.280;2023-04-16T01:32:31;10.80;;;6.53;;
25153;SDS011;47555;51.038;6.280;2023-04-16T01:34:57;17.65;;;6.32;;
25153;SDS011;47555;51.038;6.280;2023-04-16T01:37:23;9.40;;;5.85;;
25153;SDS011;47555;51.038;6.280;2023-04-16T01:39:48;12.25;;;6.88;;
25153;SDS011;47555;51.038;6.280;2023-04-16T01:42:14;17.25;;;7.07;;
25153;SDS011;47555;51.038;6.280;2023-04-16T01:44:39;19.02;;;7.97;;
25153;SDS011;47555;51.038;6.280;2023-04-16T01:47:05;13.38;;;7.05;;
25153;SDS011;47555;51.038;6.280;2023-04-16T01:49:30;13.30;;;7.00;;
25153;SDS011;47555;51.038;6.280;2023-04-16T01:51:57;14.57;;;7.28;;
25153;SDS011;47555;51.038;6.280;2023-04-16T01:54:23;14.02;;;7.60;;
25153;SDS011;47555;51.038;6.280;2023-04-16T01:56:49;10.95;;;7.50;;
25153;SDS011;47555;51.038;6.280;2023-04-16T01:59:15;16.92;;;7.53;;
25153;SDS011;47555;51.038;6.280;2023-04-16T02:01:40;13.85;;;7.57;;
25153;SDS011;47555;51.038;6.280;2023-04-16T02:04:06;13.40;;;7.13;;
25153;SDS011;47555;51.038;6.280;2023-04-16T02:06:32;13.68;;;7.78;;
25153;SDS011;47555;51.038;6.280;2023-04-16T02:08:57;15.52;;;7.63;;
25153;SDS011;47555;51.038;6.280;2023-04-16T02:11:23;13.88;;;7.38;;
25153;SDS011;47555;51.038;6.280;2023-04-16T02:13:48;12.80;;;7.35;;
25153;SDS011;47555;51.038;6.280;2023-04-16T02:16:14;15.60;;;7.38;;
25153;SDS011;47555;51.038;6.280;2023-04-16T02:18:40;14.88;;;7.68;;
25153;SDS011;47555;51.038;6.280;2023-04-16T02:21:05;15.55;;;7.57;;
25153;SDS011;47555;51.038;6.280;2023-04-16T02:23:31;16.23;;;7.90;;
25153;SDS011;47555;51.038;6.280;2023-04-16T02:25:57;13.15;;;8.15;;
25153;SDS011;47555;51.038;6.280;2023-04-16T02:28:22;14.57;;;8.25;;
25153;SDS011;47555;51.038;6.280;2023-04-16T02:30:48;13.60;;;7.65;;
25153;SDS011;47555;51.038;6.280;2023-04-16T02:33:13;19.45;;;8.82;;
25153;SDS011;47555;51.038;6.280;2023-04-16T02:35:39;14.23;;;7.95;;
25153;SDS011;47555;51.038;6.280;2023-04-16T02:38:05;19.13;;;8.77;;
25153;SDS011;47555;51.038;6.280;2023-04-16T02:40:31;19.48;;;8.73;;
25153;SDS011;47555;51.038;6.280;2023-04-16T02:42:57;18.95;;;9.70;;
25153;SDS011;47555;51.038;6.280;2023-04-16T02:45:23;20.25;;;8.75;;
25153;SDS011;47555;51.038;6.280;2023-04-16T02:47:49;20.80;;;9.30;;
25153;SDS011;47555;51.038;6.280;2023-04-16T02:50:15;17.60;;;8.13;;
25153;SDS011;47555;51.038;6.280;2023-04-16T02:52:41;15.50;;;8.90;;
25153;SDS011;47555;51.038;6.280;2023-04-16T02:55:07;20.70;;;8.73;;
25153;SDS011;47555;51.038;6.280;2023-04-16T02:57:33;22.13;;;8.57;;
25153;SDS011;47555;51.038;6.280;2023-04-16T02:59:59;19.88;;;7.97;;
25153;SDS011;47555;51.038;6.280;2023-04-16T03:02:25;20.25;;;8.65;;
25153;SDS011;47555;51.038;6.280;2023-04-16T03:04:51;15.50;;;8.25;;
25153;SDS011;47555;51.038;6.280;2023-04-16T03:07:17;20.00;;;8.38;;
25153;SDS011;47555;51.038;6.280;2023-04-16T03:09:43;17.08;;;8.55;;
25153;SDS011;47555;51.038;6.280;2023-04-16T03:12:10;20.75;;;9.15;;
25153;SDS011;47555;51.038;6.280;2023-04-16T03:14:35;20.60;;;10.40;;
25153;SDS011;47555;51.038;6.280;2023-04-16T03:17:01;16.48;;;8.63;;
25153;SDS011;47555;51.038;6.280;2023-04-16T03:19:27;18.60;;;9.20;;
25153;SDS011;47555;51.038;6.280;2023-04-16T03:21:53;22.95;;;9.45;;
25153;SDS011;47555;51.038;6.280;2023-04-16T03:24:20;17.27;;;9.68;;
25153;SDS011;47555;51.038;6.280;2023-04-16T03:26:46;16.52;;;8.23;;
25153;SDS011;47555;51.038;6.280;2023-04-16T03:29:11;14.98;;;8.60;;
25153;SDS011;47555;51.038;6.280;2023-04-16T03:31:37;16.10;;;9.13;;
25153;SDS011;47555;51.038;6.280;2023-04-16T03:34:03;19.98;;;9.23;;
25153;SDS011;47555;51.038;6.280;2023-04-16T03:36:28;19.10;;;9.23;;
25153;SDS011;47555;51.038;6.280;2023-04-16T03:38:55;16.85;;;9.40;;
25153;SDS011;47555;51.038;6.280;2023-04-16T03:41:21;20.40;;;8.70;;
25153;SDS011;47555;51.038;6.280;2023-04-16T03:43:46;22.45;;;9.63;;
25153;SDS011;47555;51.038;6.280;2023-04-16T03:46:12;20.52;;;9.65;;
25153;SDS011;47555;51.038;6.280;2023-04-16T03:48:38;16.98;;;9.73;;
25153;SDS011;47555;51.038;6.280;2023-04-16T03:51:04;18.63;;;10.02;;
25153;SDS011;47555;51.038;6.280;2023-04-16T03:53:29;21.35;;;9.93;;
25153;SDS011;47555;51.038;6.280;2023-04-16T03:55:55;17.42;;;9.38;;
25153;SDS011;47555;51.038;6.280;2023-04-16T03:58:21;17.38;;;9.98;;
25153;SDS011;47555;51.038;6.280;2023-04-16T04:00:46;16.27;;;8.85;;
25153;SDS011;47555;51.038;6.280;2023-04-16T04:03:12;17.95;;;9.02;;
25153;SDS011;47555;51.038;6.280;2023-04-16T04:05:41;18.17;;;9.60;;
25153;SDS011;47555;51.038;6.280;2023-04-16T04:08:07;17.83;;;9.32;;
25153;SDS011;47555;51.038;6.280;2023-04-16T04:10:33;21.70;;;9.93;;
25153;SDS011;47555;51.038;6.280;2023-04-16T04:13:01;19.63;;;9.20;;
25153;SDS011;47555;51.038;6.280;2023-04-16T04:15:28;19.77;;;9.20;;
25153;SDS011;47555;51.038;6.280;2023-04-16T04:17:53;16.45;;;9.32;;
25153;SDS011;47555;51.038;6.280;2023-04-16T04:20:20;17.88;;;8.95;;
25153;SDS011;47555;51.038;6.280;2023-04-16T04:22:45;20.92;;;9.35;;
25153;SDS011;47555;51.038;6.280;2023-04-16T04:25:11;17.48;;;9.15;;
25153;SDS011;47555;51.038;6.280;2023-04-16T04:27:36;18.50;;;9.43;;
25153;SDS011;47555;51.038;6.280;2023-04-16T04:30:02;21.25;;;9.27;;
25153;SDS011;47555;51.038;6.280;2023-04-16T04:32:28;18.55;;;9.02;;
25153;SDS011;47555;51.038;6.280;2023-04-16T04:34:55;17.63;;;9.20;;
25153;SDS011;47555;51.038;6.280;2023-04-16T04:37:21;19.88;;;9.23;;
25153;SDS011;47555;51.038;6.280;2023-04-16T04:39:46;18.60;;;10.07;;
25153;SDS011;47555;51.038;6.280;2023-04-16T04:42:12;19.63;;;8.95;;
25153;SDS011;47555;51.038;6.280;2023-04-16T04:44:38;16.67;;;8.80;;
25153;SDS011;47555;51.038;6.280;2023-04-16T04:47:03;19.70;;;9.20;;
25153;SDS011;47555;51.038;6.280;2023-04-16T04:49:29;18.60;;;8.90;;
25153;SDS011;47555;51.038;6.280;2023-04-16T04:51:55;24.30;;;9.98;;
25153;SDS011;47555;51.038;6.280;2023-04-16T04:54:21;19.33;;;9.27;;
25153;SDS011;47555;51.038;6.280;2023-04-16T04:56:47;19.63;;;9.23;;
25153;SDS011;47555;51.038;6.280;2023-04-16T04:59:13;18.70;;;10.35;;
25153;SDS011;47555;51.038;6.280;2023-04-16T05:01:38;18.80;;;9.13;;
25153;SDS011;47555;51.038;6.280;2023-04-16T05:04:04;18.63;;;9.10;;
25153;SDS011;47555;51.038;6.280;2023-04-16T05:06:29;22.98;;;10.73;;
25153;SDS011;47555;51.038;6.280;2023-04-16T05:08:55;18.80;;;9.50;;
25153;SDS011;47555;51.038;6.280;2023-04-16T05:11:21;19.42;;;9.40;;
25153;SDS011;47555;51.038;6.280;2023-04-16T05:13:46;17.77;;;9.10;;
25153;SDS011;47555;51.038;6.280;2023-04-16T05:16:12;17.30;;;8.13;;
25153;SDS011;47555;51.038;6.280;2023-04-16T05:18:38;18.95;;;9.07;;
25153;SDS011;47555;51.038;6.280;2023-04-16T05:21:03;19.38;;;9.35;;
25153;SDS011;47555;51.038;6.280;2023-04-16T05:23:29;21.48;;;9.20;;
25153;SDS011;47555;51.038;6.280;2023-04-16T05:25:55;17.33;;;8.65;;
25153;SDS011;47555;51.038;6.280;2023-04-16T05:28:20;16.63;;;8.68;;
25153;SDS011;47555;51.038;6.280;2023-04-16T05:30:46;17.25;;;8.77;;
25153;SDS011;47555;51.038;6.280;2023-04-16T05:33:12;17.63;;;9.25;;
25153;SDS011;47555;51.038;6.280;2023-04-16T05:35:37;17.98;;;8.63;;
25153;SDS011;47555;51.038;6.280;2023-04-16T05:38:03;17.30;;;8.60;;
25153;SDS011;47555;51.038;6.280;2023-04-16T05:40:28;15.63;;;8.15;;
25153;SDS011;47555;51.038;6.280;2023-04-16T05:42:55;18.10;;;8.68;;
25153;SDS011;47555;51.038;6.280;2023-04-16T05:45:21;19.17;;;8.27;;
25153;SDS011;47555;51.038;6.280;2023-04-16T05:47:46;14.73;;;7.85;;
25153;SDS011;47555;51.038;6.280;2023-04-16T05:50:12;17.52;;;8.25;;
25153;SDS011;47555;51.038;6.280;2023-04-16T05:52:37;18.63;;;9.93;;
25153;SDS011;47555;51.038;6.280;2023-04-16T05:55:03;16.58;;;9.23;;
25153;SDS011;47555;51.038;6.280;2023-04-16T05:57:29;15.75;;;8.95;;
25153;SDS011;47555;51.038;6.280;2023-04-16T05:59:54;17.40;;;8.80;;
25153;SDS011;47555;51.038;6.280;2023-04-16T06:02:20;17.92;;;9.00;;
25153;SDS011;47555;51.038;6.280;2023-04-16T06:04:46;18.50;;;8.75;;
25153;SDS011;47555;51.038;6.280;2023-04-16T06:07:11;19.50;;;9.57;;
25153;SDS011;47555;51.038;6.280;2023-04-16T06:09:37;21.27;;;10.27;;
25153;SDS011;47555;51.038;6.280;2023-04-16T06:12:02;20.25;;;9.98;;
25153;SDS011;47555;51.038;6.280;2023-04-16T06:14:28;23.27;;;10.02;;
25153;SDS011;47555;51.038;6.280;2023-04-16T06:16:54;18.92;;;9.18;;
25153;SDS011;47555;51.038;6.280;2023-04-16T06:19:20;19.15;;;9.77;;
25153;SDS011;47555;51.038;6.280;2023-04-16T06:21:45;25.63;;;9.75;;
25153;SDS011;47555;51.038;6.280;2023-04-16T06:24:11;19.40;;;9.40;;
25153;SDS011;47555;51.038;6.280;2023-04-16T06:26:37;28.10;;;10.60;;
25153;SDS011;47555;51.038;6.280;2023-04-16T06:29:02;19.48;;;9.50;;
25153;SDS011;47555;51.038;6.280;2023-04-16T06:31:28;21.40;;;9.23;;
25153;SDS011;47555;51.038;6.280;2023-04-16T06:33:54;21.45;;;10.10;;
25153;SDS011;47555;51.038;6.280;2023-04-16T06:36:20;24.30;;;10.57;;
25153;SDS011;47555;51.038;6.280;2023-04-16T06:38:46;21.30;;;9.30;;
25153;SDS011;47555;51.038;6.280;2023-04-16T06:41:12;25.73;;;10.93;;
25153;SDS011;47555;51.038;6.280;2023-04-16T06:43:38;27.40;;;10.65;;
25153;SDS011;47555;51.038;6.280;2023-04-16T06:46:04;24.77;;;10.75;;
25153;SDS011;47555;51.038;6.280;2023-04-16T06:48:29;23.52;;;10.57;;
25153;SDS011;47555;51.038;6.280;2023-04-16T06:50:55;27.33;;;10.95;;
25153;SDS011;47555;51.038;6.280;2023-04-16T06:53:21;23.50;;;11.25;;
25153;SDS011;47555;51.038;6.280;2023-04-16T06:55:47;25.58;;;10.38;;
25153;SDS011;47555;51.038;6.280;2023-04-16T06:58:13;27.90;;;12.07;;
25153;SDS011;47555;51.038;6.280;2023-04-16T07:00:38;25.83;;;10.63;;
25153;SDS011;47555;51.038;6.280;2023-04-16T07:03:04;27.95;;;11.85;;
25153;SDS011;47555;51.038;6.280;2023-04-16T07:05:30;32.90;;;13.05;;
25153;SDS011;47555;51.038;6.280;2023-04-16T07:07:55;22.50;;;11.15;;
25153;SDS011;47555;51.038;6.280;2023-04-16T07:10:21;31.88;;;12.82;;
25153;SDS011;47555;51.038;6.280;2023-04-16T07:12:47;28.95;;;13.13;;
25153;SDS011;47555;51.038;6.280;2023-04-16T07:15:13;31.40;;;13.63;;
25153;SDS011;47555;51.038;6.280;2023-04-16T07:17:38;37.30;;;14.88;;
25153;SDS011;47555;51.038;6.280;2023-04-16T07:20:04;32.50;;;14.75;;
25153;SDS011;47555;51.038;6.280;2023-04-16T07:22:30;32.95;;;14.50;;
25153;SDS011;47555;51.038;6.280;2023-04-16T07:24:56;36.05;;;14.88;;
25153;SDS011;47555;51.038;6.280;2023-04-16T07:27:21;36.65;;;14.55;;
25153;SDS011;47555;51.038;6.280;2023-04-16T07:29:47;34.67;;;15.05;;
25153;SDS011;47555;51.038;6.280;2023-04-16T07:32:15;36.33;;;15.63;;
25153;SDS011;47555;51.038;6.280;2023-04-16T07:34:41;31.25;;;14.52;;
25153;SDS011;47555;51.038;6.280;2023-04-16T07:37:07;37.47;;;14.73;;
25153;SDS011;47555;51.038;6.280;2023-04-16T07:39:33;35.08;;;14.50;;
25153;SDS011;47555;51.038;6.280;2023-04-16T07:41:58;34.92;;;14.40;;
25153;SDS011;47555;51.038;6.280;2023-04-16T07:44:25;43.72;;;15.57;;
25153;SDS011;47555;51.038;6.280;2023-04-16T07:46:51;31.17;;;12.82;;
25153;SDS011;47555;51.038;6.280;2023-04-16T07:49:17;35.90;;;14.55;;
25153;SDS011;47555;51.038;6.280;2023-04-16T07:51:42;34.45;;;15.73;;
25153;SDS011;47555;51.038;6.280;2023-04-16T07:54:08;31.65;;;14.02;;
25153;SDS011;47555;51.038;6.280;2023-04-16T07:56:34;40.45;;;14.32;;
25153;SDS011;47555;51.038;6.280;2023-04-16T07:59:00;41.17;;;14.68;;
25153;SDS011;47555;51.038;6.280;2023-04-16T08:01:25;34.72;;;14.95;;
25153;SDS011;47555;51.038;6.280;2023-04-16T08:03:51;30.80;;;13.65;;
25153;SDS011;47555;51.038;6.280;2023-04-16T08:06:17;34.45;;;13.70;;
25153;SDS011;47555;51.038;6.280;2023-04-16T08:08:42;33.47;;;14.90;;
25153;SDS011;47555;51.038;6.280;2023-04-16T08:11:08;34.63;;;14.68;;
25153;SDS011;47555;51.038;6.280;2023-04-16T08:13:33;38.38;;;15.38;;
25153;SDS011;47555;51.038;6.280;2023-04-16T08:15:59;32.50;;;14.00;;
25153;SDS011;47555;51.038;6.280;2023-04-16T08:18:25;38.47;;;14.38;;
25153;SDS011;47555;51.038;6.280;2023-04-16T08:20:51;34.22;;;14.50;;
25153;SDS011;47555;51.038;6.280;2023-04-16T08:23:16;32.65;;;14.20;;
25153;SDS011;47555;51.038;6.280;2023-04-16T08:25:42;31.13;;;13.55;;
25153;SDS011;47555;51.038;6.280;2023-04-16T08:28:07;31.30;;;13.20;;
25153;SDS011;47555;51.038;6.280;2023-04-16T08:30:33;32.58;;;13.80;;
25153;SDS011;47555;51.038;6.280;2023-04-16T08:32:59;32.90;;;14.68;;
25153;SDS011;47555;51.038;6.280;2023-04-16T08:35:25;28.45;;;12.30;;
25153;SDS011;47555;51.038;6.280;2023-04-16T08:37:51;35.67;;;14.60;;
25153;SDS011;47555;51.038;6.280;2023-04-16T08:40:17;30.10;;;13.77;;
25153;SDS011;47555;51.038;6.280;2023-04-16T08:45:19;33.15;;;13.15;;
25153;SDS011;47555;51.038;6.280;2023-04-16T08:47:49;33.65;;;13.68;;
25153;SDS011;47555;51.038;6.280;2023-04-16T08:50:15;29.25;;;13.85;;
25153;SDS011;47555;51.038;6.280;2023-04-16T08:52:44;31.73;;;13.32;;
25153;SDS011;47555;51.038;6.280;2023-04-16T08:55:14;27.88;;;12.68;;
25153;SDS011;47555;51.038;6.280;2023-04-16T08:57:47;33.33;;;14.18;;
25153;SDS011;47555;51.038;6.280;2023-04-16T09:00:17;33.42;;;13.60;;
25153;SDS011;47555;51.038;6.280;2023-04-16T09:02:44;27.98;;;12.73;;
25153;SDS011;47555;51.038;6.280;2023-04-16T09:05:10;27.95;;;13.15;;
25153;SDS011;47555;51.038;6.280;2023-04-16T09:07:41;32.42;;;13.25;;
25153;SDS011;47555;51.038;6.280;2023-04-16T09:10:08;33.20;;;13.15;;
25153;SDS011;47555;51.038;6.280;2023-04-16T09:12:34;30.38;;;14.38;;
25153;SDS011;47555;51.038;6.280;2023-04-16T09:15:00;31.02;;;13.18;;
25153;SDS011;47555;51.038;6.280;2023-04-16T09:17:27;32.85;;;13.43;;
25153;SDS011;47555;51.038;6.280;2023-04-16T09:19:52;34.45;;;14.20;;
25153;SDS011;47555;51.038;6.280;2023-04-16T09:22:18;35.13;;;13.82;;
25153;SDS011;47555;51.038;6.280;2023-04-16T09:24:44;32.40;;;13.38;;
25153;SDS011;47555;51.038;6.280;2023-04-16T09:27:10;33.97;;;14.80;;
25153;SDS011;47555;51.038;6.280;2023-04-16T09:29:37;28.77;;;14.13;;
25153;SDS011;47555;51.038;6.280;2023-04-16T09:32:05;30.73;;;14.43;;
25153;SDS011;47555;51.038;6.280;2023-04-16T09:34:52;26.52;;;12.52;;
25153;SDS011;47555;51.038;6.280;2023-04-16T09:37:28;27.10;;;13.18;;
25153;SDS011;47555;51.038;6.280;2023-04-16T09:39:58;27.13;;;12.65;;
25153;SDS011;47555;51.038;6.280;2023-04-16T09:42:27;28.50;;;13.32;;
25153;SDS011;47555;51.038;6.280;2023-04-16T09:44:54;27.85;;;13.50;;
25153;SDS011;47555;51.038;6.280;2023-04-16T09:47:20;30.90;;;12.88;;
25153;SDS011;47555;51.038;6.280;2023-04-16T09:49:46;23.65;;;12.23;;
25153;SDS011;47555;51.038;6.280;2023-04-16T09:52:12;26.08;;;12.30;;
25153;SDS011;47555;51.038;6.280;2023-04-16T09:54:44;27.90;;;13.05;;
25153;SDS011;47555;51.038;6.280;2023-04-16T09:57:17;23.65;;;11.88;;
25153;SDS011;47555;51.038;6.280;2023-04-16T09:59:47;30.20;;;14.10;;
25153;SDS011;47555;51.038;6.280;2023-04-16T10:02:16;26.05;;;13.18;;
25153;SDS011;47555;51.038;6.280;2023-04-16T10:04:48;26.67;;;12.40;;
25153;SDS011;47555;51.038;6.280;2023-04-16T10:07:15;31.55;;;13.57;;
25153;SDS011;47555;51.038;6.280;2023-04-16T10:09:42;31.00;;;14.02;;
25153;SDS011;47555;51.038;6.280;2023-04-16T10:12:07;29.85;;;14.27;;
25153;SDS011;47555;51.038;6.280;2023-04-16T10:14:33;32.47;;;13.27;;
25153;SDS011;47555;51.038;6.280;2023-04-16T10:16:59;29.95;;;13.60;;
25153;SDS011;47555;51.038;6.280;2023-04-16T10:19:28;31.90;;;14.32;;
25153;SDS011;47555;51.038;6.280;2023-04-16T10:21:56;34.28;;;14.73;;
25153;SDS011;47555;51.038;6.280;2023-04-16T10:24:22;34.85;;;15.40;;
25153;SDS011;47555;51.038;6.280;2023-04-16T10:26:49;37.20;;;16.30;;
25153;SDS011;47555;51.038;6.280;2023-04-16T10:29:16;35.08;;;15.38;;
25153;SDS011;47555;51.038;6.280;2023-04-16T10:31:43;36.33;;;16.13;;
25153;SDS011;47555;51.038;6.280;2023-04-16T10:34:09;34.38;;;16.10;;
25153;SDS011;47555;51.038;6.280;2023-04-16T10:36:35;33.50;;;15.90;;
25153;SDS011;47555;51.038;6.280;2023-04-16T10:39:01;35.42;;;16.27;;
25153;SDS011;47555;51.038;6.280;2023-04-16T10:41:27;31.63;;;15.00;;
25153;SDS011;47555;51.038;6.280;2023-04-16T10:43:55;32.47;;;15.57;;
25153;SDS011;47555;51.038;6.280;2023-04-16T10:46:32;29.33;;;15.65;;
25153;SDS011;47555;51.038;6.280;2023-04-16T10:49:11;36.03;;;16.60;;
25153;SDS011;47555;51.038;6.280;2023-04-16T10:51:56;27.60;;;14.15;;
25153;SDS011;47555;51.038;6.280;2023-04-16T10:54:23;26.80;;;13.98;;
25153;SDS011;47555;51.038;6.280;2023-04-16T10:56:56;26.15;;;14.13;;
25153;SDS011;47555;51.038;6.280;2023-04-16T10:59:23;33.53;;;15.43;;
25153;SDS011;47555;51.038;6.280;2023-04-16T11:01:54;30.00;;;14.35;;
25153;SDS011;47555;51.038;6.280;2023-04-16T11:07:08;34.95;;;15.55;;
25153;SDS011;47555;51.038;6.280;2023-04-16T11:12:38;29.23;;;14.82;;
25153;SDS011;47555;51.038;6.280;2023-04-16T11:15:06;29.85;;;14.40;;
25153;SDS011;47555;51.038;6.280;2023-04-16T11:20:07;26.50;;;13.88;;
25153;SDS011;47555;51.038;6.280;2023-04-16T11:22:43;25.17;;;14.48;;
25153;SDS011;47555;51.038;6.280;2023-04-16T11:25:09;21.23;;;12.15;;
25153;SDS011;47555;51.038;6.280;2023-04-16T11:27:35;23.83;;;12.95;;
25153;SDS011;47555;51.038;6.280;2023-04-16T11:30:07;23.70;;;12.40;;
25153;SDS011;47555;51.038;6.280;2023-04-16T11:32:36;20.10;;;11.45;;
25153;SDS011;47555;51.038;6.280;2023-04-16T11:35:03;24.27;;;12.60;;
25153;SDS011;47555;51.038;6.280;2023-04-16T11:37:37;26.38;;;13.55;;
25153;SDS011;47555;51.038;6.280;2023-04-16T11:40:04;22.77;;;13.23;;
25153;SDS011;47555;51.038;6.280;2023-04-16T11:42:31;22.67;;;13.02;;
25153;SDS011;47555;51.038;6.280;2023-04-16T11:45:01;19.02;;;12.13;;
25153;SDS011;47555;51.038;6.280;2023-04-16T11:47:27;22.15;;;13.05;;
25153;SDS011;47555;51.038;6.280;2023-04-16T11:49:54;19.58;;;11.95;;
25153;SDS011;47555;51.038;6.280;2023-04-16T11:52:27;19.42;;;11.98;;
25153;SDS011;47555;51.038;6.280;2023-04-16T11:54:57;20.92;;;11.45;;
25153;SDS011;47555;51.038;6.280;2023-04-16T11:57:30;18.73;;;11.00;;
25153;SDS011;47555;51.038;6.280;2023-04-16T11:59:56;22.75;;;12.02;;
25153;SDS011;47555;51.038;6.280;2023-04-16T12:02:36;19.60;;;11.55;;
25153;SDS011;47555;51.038;6.280;2023-04-16T12:05:04;18.30;;;11.25;;
25153;SDS011;47555;51.038;6.280;2023-04-16T12:07:31;21.83;;;10.82;;
25153;SDS011;47555;51.038;6.280;2023-04-16T12:10:07;18.85;;;11.23;;
25153;SDS011;47555;51.038;6.280;2023-04-16T12:12:33;20.83;;;10.77;;
25153;SDS011;47555;51.038;6.280;2023-04-16T12:15:00;16.08;;;10.20;;
25153;SDS011;47555;51.038;6.280;2023-04-16T12:17:30;17.58;;;10.88;;
25153;SDS011;47555;51.038;6.280;2023-04-16T12:19:57;18.02;;;10.85;;
25153;SDS011;47555;51.038;6.280;2023-04-16T12:24:58;19.45;;;10.98;;
25153;SDS011;47555;51.038;6.280;2023-04-16T12:27:45;24.45;;;13.35;;
25153;SDS011;47555;51.038;6.280;2023-04-16T12:30:16;19.42;;;11.15;;
25153;SDS011;47555;51.038;6.280;2023-04-16T12:32:44;21.30;;;11.27;;
25153;SDS011;47555;51.038;6.280;2023-04-16T12:35:12;20.45;;;11.52;;
25153;SDS011;47555;51.038;6.280;2023-04-16T12:37:39;19.98;;;12.48;;
25153;SDS011;47555;51.038;6.280;2023-04-16T12:40:05;22.38;;;12.23;;
25153;SDS011;47555;51.038;6.280;2023-04-16T12:42:32;20.10;;;11.60;;
25153;SDS011;47555;51.038;6.280;2023-04-16T12:45:04;20.10;;;12.13;;
25153;SDS011;47555;51.038;6.280;2023-04-16T12:47:31;17.85;;;11.40;;
25153;SDS011;47555;51.038;6.280;2023-04-16T12:49:56;17.00;;;10.95;;
25153;SDS011;47555;51.038;6.280;2023-04-16T12:52:23;21.60;;;11.40;;
25153;SDS011;47555;51.038;6.280;2023-04-16T12:54:49;23.65;;;11.60;;
25153;SDS011;47555;51.038;6.280;2023-04-16T12:57:15;20.98;;;11.80;;
25153;SDS011;47555;51.038;6.280;2023-04-16T12:59:40;17.98;;;11.27;;
25153;SDS011;47555;51.038;6.280;2023-04-16T13:02:06;20.80;;;11.52;;
25153;SDS011;47555;51.038;6.280;2023-04-16T13:04:32;23.63;;;12.55;;
25153;SDS011;47555;51.038;6.280;2023-04-16T13:06:58;22.42;;;12.98;;
25153;SDS011;47555;51.038;6.280;2023-04-16T13:09:23;23.55;;;12.70;;
25153;SDS011;47555;51.038;6.280;2023-04-16T13:11:49;22.05;;;12.90;;
25153;SDS011;47555;51.038;6.280;2023-04-16T13:14:15;29.92;;;14.98;;
25153;SDS011;47555;51.038;6.280;2023-04-16T13:16:40;25.73;;;15.05;;
25153;SDS011;47555;51.038;6.280;2023-04-16T13:19:06;28.98;;;16.98;;
25153;SDS011;47555;51.038;6.280;2023-04-16T13:21:32;25.65;;;15.77;;
25153;SDS011;47555;51.038;6.280;2023-04-16T13:23:58;27.45;;;14.45;;
25153;SDS011;47555;51.038;6.280;2023-04-16T13:26:23;22.92;;;14.32;;
25153;SDS011;47555;51.038;6.280;2023-04-16T13:28:49;25.40;;;14.23;;
25153;SDS011;47555;51.038;6.280;2023-04-16T13:31:15;23.98;;;14.60;;
25153;SDS011;47555;51.038;6.280;2023-04-16T13:33:43;22.27;;;14.00;;
25153;SDS011;47555;51.038;6.280;2023-04-16T13:36:09;23.27;;;14.35;;
25153;SDS011;47555;51.038;6.280;2023-04-16T13:38:35;25.02;;;13.85;;
25153;SDS011;47555;51.038;6.280;2023-04-16T13:41:00;25.13;;;13.55;;
25153;SDS011;47555;51.038;6.280;2023-04-16T13:43:26;26.52;;;15.32;;
25153;SDS011;47555;51.038;6.280;2023-04-16T13:45:51;29.58;;;14.98;;
25153;SDS011;47555;51.038;6.280;2023-04-16T13:48:17;27.48;;;14.95;;
25153;SDS011;47555;51.038;6.280;2023-04-16T13:50:42;28.65;;;15.23;;
25153;SDS011;47555;51.038;6.280;2023-04-16T13:53:08;29.67;;;15.55;;
25153;SDS011;47555;51.038;6.280;2023-04-16T13:55:33;30.13;;;16.08;;
25153;SDS011;47555;51.038;6.280;2023-04-16T13:57:59;26.65;;;14.93;;
25153;SDS011;47555;51.038;6.280;2023-04-16T14:00:25;28.20;;;16.10;;
25153;SDS011;47555;51.038;6.280;2023-04-16T14:02:51;29.90;;;14.75;;
25153;SDS011;47555;51.038;6.280;2023-04-16T14:05:17;27.60;;;17.20;;
25153;SDS011;47555;51.038;6.280;2023-04-16T14:07:43;33.35;;;18.20;;
25153;SDS011;47555;51.038;6.280;2023-04-16T14:10:10;33.55;;;18.48;;
25153;SDS011;47555;51.038;6.280;2023-04-16T14:12:36;30.60;;;16.80;;
25153;SDS011;47555;51.038;6.280;2023-04-16T14:15:03;35.97;;;17.92;;
25153;SDS011;47555;51.038;6.280;2023-04-16T14:17:33;33.75;;;16.55;;
25153;SDS011;47555;51.038;6.280;2023-04-16T14:19:59;30.00;;;15.85;;
25153;SDS011;47555;51.038;6.280;2023-04-16T14:22:25;32.92;;;17.30;;
25153;SDS011;47555;51.038;6.280;2023-04-16T14:24:50;29.30;;;16.05;;
25153;SDS011;47555;51.038;6.280;2023-04-16T14:27:16;30.40;;;16.48;;
25153;SDS011;47555;51.038;6.280;2023-04-16T14:29:41;33.45;;;17.67;;
25153;SDS011;47555;51.038;6.280;2023-04-16T14:32:08;33.63;;;16.77;;
25153;SDS011;47555;51.038;6.280;2023-04-16T14:34:33;36.65;;;17.00;;
25153;SDS011;47555;51.038;6.280;2023-04-16T14:36:59;28.67;;;16.10;;
25153;SDS011;47555;51.038;6.280;2023-04-16T14:39:24;33.45;;;16.80;;